DLH494 EDDM-CYYZ
Flight info
| Callsign | DLH494 |
|---|---|
| Flight time | N/A |
| Altitude | 38000 |
| Route | GIVMI6S GIVMI Y101 INBED DCT REKDI DCT LOHRE DCT ADKUV DCT LENDO DCT SOGRI DCT DENUT L610 KOPUL DCT SABER DCT SIVDA DCT RODOL UL28 PENIL DCT DEJEM/N0482F400 DCT OZRAT DCT WETFI DCT ASKUP DCT TUGSI DCT REVNU DCT RESNO/M084F390 NATB LOMSI/N0492F400 N672A ANATI Q812 MAIRE DCT OBTAX Q824 LETAK IMEBA9 |
| Aircraft | A359/H-SADE2E3GHIJ1J2J3J4J5M1P2RWXYZ/LB1D1 |
Departure
| Time | 2026-05-04 08:00 |
|---|---|
| Airport | Munich Airport (EDDM) |
Arrival
| Time | N/A |
|---|---|
| Airport | Toronto Pearson International Airport (CYYZ) |
| Time | Latitude | Longitude | Altitude | Speed | Heading |
|---|---|---|---|---|---|
| 2026-05-04 07:41 | 48.35531 | 11.79720 | 1484 ft | 0 kts | 83° |
| 2026-05-04 07:49 | 48.35531 | 11.79721 | 1491 ft | 0 kts | 83° |
| 2026-05-04 07:49 | 48.35531 | 11.79720 | 1491 ft | 1 kts | 83° |
| 2026-05-04 07:49 | 48.35528 | 11.79684 | 1476 ft | 4 kts | 83° |
| 2026-05-04 07:50 | 48.35526 | 11.79654 | 1479 ft | 4 kts | 83° |
| 2026-05-04 07:50 | 48.35524 | 11.79625 | 1476 ft | 4 kts | 75° |
| 2026-05-04 07:50 | 48.35513 | 11.79592 | 1476 ft | 4 kts | 35° |
| 2026-05-04 07:50 | 48.35492 | 11.79583 | 1476 ft | 4 kts | 353° |
| 2026-05-04 07:51 | 48.35466 | 11.79588 | 1478 ft | 2 kts | 353° |
| 2026-05-04 07:51 | 48.35464 | 11.79588 | 1479 ft | 0 kts | 353° |
| 2026-05-04 07:54 | 48.36030 | 11.79490 | 1480 ft | 19 kts | 353° |
| 2026-05-04 07:55 | 48.36162 | 11.79468 | 1481 ft | 18 kts | 355° |
| 2026-05-04 07:55 | 48.36215 | 11.79518 | 1481 ft | 8 kts | 69° |
| 2026-05-04 07:55 | 48.36227 | 11.79627 | 1488 ft | 12 kts | 84° |
| 2026-05-04 07:55 | 48.36236 | 11.79758 | 1480 ft | 15 kts | 84° |
| 2026-05-04 07:56 | 48.36248 | 11.79927 | 1487 ft | 18 kts | 84° |
| 2026-05-04 07:56 | 48.36264 | 11.80117 | 1483 ft | 20 kts | 83° |
| 2026-05-04 07:56 | 48.36281 | 11.80332 | 1479 ft | 22 kts | 83° |
| 2026-05-04 07:56 | 48.36299 | 11.80564 | 1482 ft | 23 kts | 84° |
| 2026-05-04 07:57 | 48.36317 | 11.80801 | 1486 ft | 23 kts | 83° |
| 2026-05-04 07:57 | 48.36334 | 11.81028 | 1491 ft | 23 kts | 83° |
| 2026-05-04 07:57 | 48.36353 | 11.81269 | 1478 ft | 23 kts | 83° |
| 2026-05-04 07:57 | 48.36372 | 11.81514 | 1480 ft | 24 kts | 83° |
| 2026-05-04 07:58 | 48.36391 | 11.81762 | 1481 ft | 24 kts | 83° |
| 2026-05-04 07:58 | 48.36390 | 11.81959 | 1482 ft | 17 kts | 91° |
| 2026-05-04 07:58 | 48.36418 | 11.82122 | 1476 ft | 15 kts | 35° |
| 2026-05-04 07:58 | 48.36518 | 11.82123 | 1483 ft | 14 kts | 353° |
| 2026-05-04 07:59 | 48.36612 | 11.82088 | 1478 ft | 13 kts | 328° |
| 2026-05-04 07:59 | 48.36665 | 11.81982 | 1477 ft | 13 kts | 289° |
| 2026-05-04 07:59 | 48.36665 | 11.81823 | 1481 ft | 25 kts | 263° |
| 2026-05-04 07:59 | 48.36621 | 11.81238 | 1482 ft | 87 kts | 263° |
| 2026-05-04 08:00 | 48.36529 | 11.80049 | 1483 ft | 140 kts | 263° |
| 2026-05-04 08:00 | 48.36399 | 11.78381 | 1621 ft | 172 kts | 264° |
| 2026-05-04 08:00 | 48.36269 | 11.76670 | 2351 ft | 161 kts | 264° |
| 2026-05-04 08:02 | 48.37902 | 11.62523 | 5387 ft | 234 kts | 303° |
| 2026-05-04 08:02 | 48.38769 | 11.60449 | 6001 ft | 236 kts | 302° |
| 2026-05-04 08:02 | 48.39670 | 11.58261 | 6345 ft | 257 kts | 301° |
| 2026-05-04 08:03 | 48.40633 | 11.55891 | 6780 ft | 271 kts | 301° |
| 2026-05-04 08:03 | 48.41631 | 11.53438 | 7454 ft | 277 kts | 300° |
| 2026-05-04 08:03 | 48.42639 | 11.50956 | 8253 ft | 280 kts | 300° |
| 2026-05-04 08:03 | 48.43662 | 11.48439 | 9066 ft | 283 kts | 299° |
| 2026-05-04 08:04 | 48.44706 | 11.45913 | 9865 ft | 287 kts | 301° |
| 2026-05-04 08:04 | 48.46100 | 11.43704 | 10594 ft | 296 kts | 323° |
| 2026-05-04 08:04 | 48.48028 | 11.42439 | 11069 ft | 315 kts | 345° |
| 2026-05-04 08:04 | 48.50246 | 11.41782 | 11412 ft | 334 kts | 348° |
| 2026-05-04 08:05 | 48.52603 | 11.41191 | 11743 ft | 353 kts | 348° |
| 2026-05-04 08:05 | 48.55074 | 11.40560 | 12219 ft | 365 kts | 348° |
| 2026-05-04 08:05 | 48.57590 | 11.39899 | 12912 ft | 370 kts | 348° |
| 2026-05-04 08:05 | 48.60144 | 11.39213 | 13603 ft | 375 kts | 347° |
| 2026-05-04 08:06 | 48.62724 | 11.38508 | 14263 ft | 379 kts | 347° |
| 2026-05-04 08:06 | 48.65331 | 11.37796 | 14915 ft | 382 kts | 347° |
| 2026-05-04 08:06 | 48.67952 | 11.37067 | 15564 ft | 385 kts | 346° |
| 2026-05-04 08:06 | 48.70503 | 11.35871 | 16181 ft | 384 kts | 332° |
| 2026-05-04 08:08 | 48.86830 | 11.20807 | 20480 ft | 406 kts | 335° |
| 2026-05-04 08:08 | 48.89484 | 11.19290 | 21097 ft | 409 kts | 338° |
| 2026-05-04 08:10 | 49.10737 | 11.08590 | 25235 ft | 431 kts | 338° |
| 2026-05-04 08:11 | 49.13596 | 11.07135 | 25724 ft | 433 kts | 338° |
| 2026-05-04 08:11 | 49.19357 | 11.04189 | 26636 ft | 440 kts | 338° |
| 2026-05-04 08:11 | 49.22267 | 11.02699 | 27108 ft | 443 kts | 338° |
| 2026-05-04 08:12 | 49.25197 | 11.01189 | 27524 ft | 446 kts | 338° |